Friday, September 19, 2014
19:59 UTC
  |  Log In   |  Register Free
Airport Search:

Pike County-Hatcher Field Airport
(KPBX)

Pike County-Hatcher Field Airport Diagram
No Airport Diagram Available

FAA data valid effective September 18, 2014 - November 13, 2014 (unless otherwise noted).

 
 
 
 
 
 
 
 
 
 
 
 
 
 

Current Aviation Weather for Pike County-Hatcher Field Airport (KPBX)

METAR data is unavailable for PBX. The nearest METAR location is at KLNP (34.5 nm SE from PBX).

The most recent METAR observation for KLNP was updated at: 1916
METAR Summary (Translated METAR)
KLNP
191855Z AUTO 19010KT 10SM SCT034 BKN047 BKN055 24/13 A3018 RMK AO2
(34.5 nm SE from KPBX)
KJKL
191853Z AUTO VRB03KT 10SM CLR 24/15 A3012 RMK AO2 SLP189 T02390150
(35.8 nm NW from KPBX)
TAF Summary (Translated TAF)
KJKL
(52.3 nm NW from KLNP)
191720Z 1918/2018 VRB03KT P6SM SCT050
  Airport Weather Conditions for KPBX

Current weather conditions are
not available for PBX


The nearest NOAA weather station
is at LNP, (34.5 nm SE from PBX)
  
 Current Weather at LNP
75° F
Mostly Cloudy
South winds at 11.5 mph
LNP NOAA Radar

Pressure: 30.18 in
Humidity: 50%
Wind: South at 11.5 MPH (10 KT)
Dew Point: 55.4°F
Visibility: 10.00 mi


Airport Weather Forecast for KPBX

Translated METAR and TAF for KLNP
Translated METAR for KLNP (1953 UTC 19 September 2014)
found at http://aviationweather.gov/adds/metars/
 
METAR text: KLNP 191935Z AUTO 20008KT 10SM CLR 25/13 A3018 RMK AO2
Conditions at: KLNP (WISE/LONESOME PI, VA, US) observed 1935 UTC 19 September 2014
Temperature: 25.0°C (77°F)
Dewpoint: 13.0°C (55°F) [RH = 47%]
Pressure (altimeter): 30.18 inches Hg (1022.1 mb)
Winds: from the SSW (200 degrees) at 9 MPH (8 knots; 4.2 m/s)
Visibility: 10 or more miles (16+ km)
Ceiling: at least 12,000 feet AGL
Clouds: sky clear below 12,000 feet AGL
Weather: automated observation with no human augmentation;
there may or may not be significant weather present at this time
Translated TAF for KLNP

There is no translated TAF available for this airport

Find All Airport Services Find A Hotel Find A Rental Car Find A Golf Course Find A Restaurant $100 Hamburger



FBO's on the Field
FBO Company Facility Photos Services Transportation Aviation Fuel Prices: Prices include tax
Catering Weather Repair Courtesy Rental Type 100LL JetA JetA+ MOGAS 8087
 
Pikeville-Pike Airport

This FBO has not yet been rated
FS:Shell
Last Updated: Sep-08
Login to update fuel prices
SS:
Contact Pikeville-Pike AirportMore FBO Information
 
Add another FBO Facility Photos Catering Weather Repair Courtesy Rental Type 100LL JetA JetA+ MOGAS 8087
Services Transportation Aviation Fuel Prices: Prices include tax


model-print
model-print
model-print
model-print